sensor_id;sensor_type;location;lat;lon;timestamp;P1;durP1;ratioP1;P2;durP2;ratioP2
78430;SDS011;67727;50.236;22.452;2023-04-28T00:01:19;23.80;;;13.70;;
78430;SDS011;67727;50.236;22.452;2023-04-28T00:03:46;23.00;;;12.20;;
78430;SDS011;67727;50.236;22.452;2023-04-28T00:06:14;25.00;;;14.20;;
78430;SDS011;67727;50.236;22.452;2023-04-28T00:08:40;23.80;;;14.10;;
78430;SDS011;67727;50.236;22.452;2023-04-28T00:11:10;28.80;;;15.00;;
78430;SDS011;67727;50.236;22.452;2023-04-28T00:13:37;27.20;;;14.30;;
78430;SDS011;67727;50.236;22.452;2023-04-28T00:16:04;28.20;;;15.00;;
78430;SDS011;67727;50.236;22.452;2023-04-28T00:18:32;32.20;;;15.30;;
78430;SDS011;67727;50.236;22.452;2023-04-28T00:20:59;25.30;;;14.30;;
78430;SDS011;67727;50.236;22.452;2023-04-28T00:23:27;28.10;;;14.00;;
78430;SDS011;67727;50.236;22.452;2023-04-28T00:25:54;29.80;;;15.00;;
78430;SDS011;67727;50.236;22.452;2023-04-28T00:28:22;28.90;;;14.80;;
78430;SDS011;67727;50.236;22.452;2023-04-28T00:30:49;23.40;;;13.90;;
78430;SDS011;67727;50.236;22.452;2023-04-28T00:33:16;24.30;;;12.10;;
78430;SDS011;67727;50.236;22.452;2023-04-28T00:35:45;22.90;;;12.50;;
78430;SDS011;67727;50.236;22.452;2023-04-28T00:38:12;22.60;;;11.60;;
78430;SDS011;67727;50.236;22.452;2023-04-28T00:40:38;20.50;;;11.90;;
78430;SDS011;67727;50.236;22.452;2023-04-28T00:43:05;22.70;;;13.10;;
78430;SDS011;67727;50.236;22.452;2023-04-28T00:45:32;26.70;;;14.00;;
78430;SDS011;67727;50.236;22.452;2023-04-28T00:48:00;25.20;;;13.90;;
78430;SDS011;67727;50.236;22.452;2023-04-28T00:50:31;27.40;;;13.80;;
78430;SDS011;67727;50.236;22.452;2023-04-28T00:52:59;25.00;;;14.50;;
78430;SDS011;67727;50.236;22.452;2023-04-28T01:00:22;25.20;;;13.00;;
78430;SDS011;67727;50.236;22.452;2023-04-28T01:02:52;23.50;;;12.90;;
78430;SDS011;67727;50.236;22.452;2023-04-28T01:05:20;25.30;;;14.10;;
78430;SDS011;67727;50.236;22.452;2023-04-28T01:07:51;23.10;;;11.80;;
78430;SDS011;67727;50.236;22.452;2023-04-28T01:10:21;28.40;;;12.60;;
78430;SDS011;67727;50.236;22.452;2023-04-28T01:12:48;27.20;;;13.20;;
78430;SDS011;67727;50.236;22.452;2023-04-28T01:15:16;27.40;;;12.60;;
78430;SDS011;67727;50.236;22.452;2023-04-28T01:17:44;23.60;;;14.00;;
78430;SDS011;67727;50.236;22.452;2023-04-28T01:20:13;30.50;;;14.30;;
78430;SDS011;67727;50.236;22.452;2023-04-28T01:22:41;28.60;;;15.60;;
78430;SDS011;67727;50.236;22.452;2023-04-28T01:25:08;31.40;;;14.10;;
78430;SDS011;67727;50.236;22.452;2023-04-28T01:27:35;35.70;;;15.00;;
78430;SDS011;67727;50.236;22.452;2023-04-28T01:30:02;28.30;;;15.40;;
78430;SDS011;67727;50.236;22.452;2023-04-28T01:32:29;28.90;;;14.60;;
78430;SDS011;67727;50.236;22.452;2023-04-28T01:34:56;26.60;;;14.00;;
78430;SDS011;67727;50.236;22.452;2023-04-28T01:37:23;27.10;;;14.30;;
78430;SDS011;67727;50.236;22.452;2023-04-28T01:39:50;26.90;;;13.00;;
78430;SDS011;67727;50.236;22.452;2023-04-28T01:42:17;27.70;;;14.30;;
78430;SDS011;67727;50.236;22.452;2023-04-28T01:44:44;26.60;;;12.20;;
78430;SDS011;67727;50.236;22.452;2023-04-28T01:47:13;26.30;;;13.20;;
78430;SDS011;67727;50.236;22.452;2023-04-28T01:49:40;30.00;;;13.20;;
78430;SDS011;67727;50.236;22.452;2023-04-28T01:52:07;27.80;;;14.10;;
78430;SDS011;67727;50.236;22.452;2023-04-28T01:54:34;27.30;;;13.00;;
78430;SDS011;67727;50.236;22.452;2023-04-28T01:57:01;24.80;;;13.80;;
78430;SDS011;67727;50.236;22.452;2023-04-28T01:59:28;25.70;;;14.80;;
78430;SDS011;67727;50.236;22.452;2023-04-28T02:01:55;26.80;;;14.80;;
78430;SDS011;67727;50.236;22.452;2023-04-28T02:04:22;28.00;;;14.00;;
78430;SDS011;67727;50.236;22.452;2023-04-28T02:06:51;30.30;;;13.80;;
78430;SDS011;67727;50.236;22.452;2023-04-28T02:09:18;33.60;;;15.80;;
78430;SDS011;67727;50.236;22.452;2023-04-28T02:11:45;29.50;;;14.70;;
78430;SDS011;67727;50.236;22.452;2023-04-28T02:14:12;26.50;;;13.90;;
78430;SDS011;67727;50.236;22.452;2023-04-28T02:16:38;28.90;;;13.60;;
78430;SDS011;67727;50.236;22.452;2023-04-28T02:19:05;28.20;;;13.30;;
78430;SDS011;67727;50.236;22.452;2023-04-28T02:21:32;27.50;;;12.50;;
78430;SDS011;67727;50.236;22.452;2023-04-28T02:23:59;29.30;;;15.40;;
78430;SDS011;67727;50.236;22.452;2023-04-28T02:26:26;35.10;;;15.90;;
78430;SDS011;67727;50.236;22.452;2023-04-28T02:28:53;30.70;;;14.90;;
78430;SDS011;67727;50.236;22.452;2023-04-28T02:31:20;27.20;;;13.30;;
78430;SDS011;67727;50.236;22.452;2023-04-28T02:33:47;32.20;;;15.10;;
78430;SDS011;67727;50.236;22.452;2023-04-28T02:36:14;30.70;;;15.70;;
78430;SDS011;67727;50.236;22.452;2023-04-28T02:38:41;29.40;;;14.60;;
78430;SDS011;67727;50.236;22.452;2023-04-28T02:41:07;26.50;;;14.70;;
78430;SDS011;67727;50.236;22.452;2023-04-28T02:43:34;32.00;;;15.00;;
78430;SDS011;67727;50.236;22.452;2023-04-28T02:46:03;29.60;;;14.20;;
78430;SDS011;67727;50.236;22.452;2023-04-28T02:48:30;27.50;;;13.30;;
78430;SDS011;67727;50.236;22.452;2023-04-28T02:50:58;23.60;;;11.90;;
78430;SDS011;67727;50.236;22.452;2023-04-28T02:53:25;20.50;;;11.40;;
78430;SDS011;67727;50.236;22.452;2023-04-28T02:55:52;28.30;;;12.30;;
78430;SDS011;67727;50.236;22.452;2023-04-28T02:58:19;21.30;;;11.90;;
78430;SDS011;67727;50.236;22.452;2023-04-28T03:00:46;20.30;;;11.20;;
78430;SDS011;67727;50.236;22.452;2023-04-28T03:03:13;23.20;;;12.10;;
78430;SDS011;67727;50.236;22.452;2023-04-28T03:05:40;21.40;;;11.70;;
78430;SDS011;67727;50.236;22.452;2023-04-28T03:08:07;17.80;;;11.10;;
78430;SDS011;67727;50.236;22.452;2023-04-28T03:10:34;23.30;;;13.50;;
78430;SDS011;67727;50.236;22.452;2023-04-28T03:13:01;20.50;;;11.80;;
78430;SDS011;67727;50.236;22.452;2023-04-28T03:15:28;21.20;;;12.20;;
78430;SDS011;67727;50.236;22.452;2023-04-28T03:17:54;23.00;;;12.80;;
78430;SDS011;67727;50.236;22.452;2023-04-28T03:20:21;22.20;;;11.40;;
78430;SDS011;67727;50.236;22.452;2023-04-28T03:22:48;23.30;;;13.10;;
78430;SDS011;67727;50.236;22.452;2023-04-28T03:25:15;23.90;;;11.60;;
78430;SDS011;67727;50.236;22.452;2023-04-28T03:27:42;16.80;;;10.20;;
78430;SDS011;67727;50.236;22.452;2023-04-28T03:30:09;22.60;;;11.40;;
78430;SDS011;67727;50.236;22.452;2023-04-28T03:32:36;21.80;;;11.70;;
78430;SDS011;67727;50.236;22.452;2023-04-28T03:35:03;24.30;;;13.30;;
78430;SDS011;67727;50.236;22.452;2023-04-28T03:37:30;26.60;;;13.20;;
78430;SDS011;67727;50.236;22.452;2023-04-28T03:39:57;24.90;;;14.00;;
78430;SDS011;67727;50.236;22.452;2023-04-28T03:42:23;26.70;;;14.90;;
78430;SDS011;67727;50.236;22.452;2023-04-28T03:44:51;27.20;;;13.90;;
78430;SDS011;67727;50.236;22.452;2023-04-28T03:47:17;26.30;;;13.90;;
78430;SDS011;67727;50.236;22.452;2023-04-28T03:49:44;25.70;;;14.60;;
78430;SDS011;67727;50.236;22.452;2023-04-28T03:52:11;25.20;;;12.90;;
78430;SDS011;67727;50.236;22.452;2023-04-28T03:54:38;26.00;;;13.30;;
78430;SDS011;67727;50.236;22.452;2023-04-28T03:57:06;24.90;;;13.30;;
78430;SDS011;67727;50.236;22.452;2023-04-28T03:59:33;23.10;;;11.90;;
78430;SDS011;67727;50.236;22.452;2023-04-28T04:02:00;22.80;;;12.40;;
78430;SDS011;67727;50.236;22.452;2023-04-28T04:04:27;29.00;;;12.60;;
78430;SDS011;67727;50.236;22.452;2023-04-28T04:06:54;34.70;;;16.70;;
78430;SDS011;67727;50.236;22.452;2023-04-28T04:09:21;26.80;;;15.30;;
78430;SDS011;67727;50.236;22.452;2023-04-28T04:11:48;30.60;;;15.80;;
78430;SDS011;67727;50.236;22.452;2023-04-28T04:14:14;82.20;;;34.30;;
78430;SDS011;67727;50.236;22.452;2023-04-28T04:16:41;64.90;;;28.30;;
78430;SDS011;67727;50.236;22.452;2023-04-28T04:19:08;54.80;;;24.80;;
78430;SDS011;67727;50.236;22.452;2023-04-28T04:21:35;50.50;;;23.70;;
78430;SDS011;67727;50.236;22.452;2023-04-28T04:24:02;50.50;;;21.90;;
78430;SDS011;67727;50.236;22.452;2023-04-28T04:26:30;38.70;;;19.60;;
78430;SDS011;67727;50.236;22.452;2023-04-28T04:28:56;33.40;;;18.90;;
78430;SDS011;67727;50.236;22.452;2023-04-28T04:31:23;30.70;;;18.20;;
78430;SDS011;67727;50.236;22.452;2023-04-28T04:33:51;29.00;;;15.70;;
78430;SDS011;67727;50.236;22.452;2023-04-28T04:36:17;26.10;;;15.40;;
78430;SDS011;67727;50.236;22.452;2023-04-28T04:38:44;26.10;;;13.90;;
78430;SDS011;67727;50.236;22.452;2023-04-28T04:41:11;23.60;;;14.40;;
78430;SDS011;67727;50.236;22.452;2023-04-28T04:43:38;21.70;;;13.50;;
78430;SDS011;67727;50.236;22.452;2023-04-28T04:46:07;19.80;;;12.10;;
78430;SDS011;67727;50.236;22.452;2023-04-28T04:48:34;21.20;;;11.90;;
78430;SDS011;67727;50.236;22.452;2023-04-28T04:51:01;23.90;;;14.40;;
78430;SDS011;67727;50.236;22.452;2023-04-28T04:53:28;27.00;;;14.20;;
78430;SDS011;67727;50.236;22.452;2023-04-28T04:55:55;20.70;;;13.20;;
78430;SDS011;67727;50.236;22.452;2023-04-28T04:58:22;24.10;;;14.30;;
78430;SDS011;67727;50.236;22.452;2023-04-28T05:00:49;25.70;;;14.00;;
78430;SDS011;67727;50.236;22.452;2023-04-28T05:03:15;25.10;;;15.20;;
78430;SDS011;67727;50.236;22.452;2023-04-28T05:05:42;25.40;;;14.00;;
78430;SDS011;67727;50.236;22.452;2023-04-28T05:08:11;22.10;;;13.80;;
78430;SDS011;67727;50.236;22.452;2023-04-28T05:10:38;23.60;;;14.20;;
78430;SDS011;67727;50.236;22.452;2023-04-28T05:13:05;24.20;;;13.90;;
78430;SDS011;67727;50.236;22.452;2023-04-28T05:15:32;26.30;;;14.40;;
78430;SDS011;67727;50.236;22.452;2023-04-28T05:17:59;25.90;;;16.00;;
78430;SDS011;67727;50.236;22.452;2023-04-28T05:20:26;24.10;;;12.40;;
78430;SDS011;67727;50.236;22.452;2023-04-28T05:22:53;22.90;;;13.70;;
78430;SDS011;67727;50.236;22.452;2023-04-28T05:25:22;23.30;;;14.20;;
78430;SDS011;67727;50.236;22.452;2023-04-28T05:27:49;25.20;;;14.20;;
78430;SDS011;67727;50.236;22.452;2023-04-28T05:30:19;25.50;;;14.50;;
78430;SDS011;67727;50.236;22.452;2023-04-28T05:32:48;21.80;;;13.90;;
78430;SDS011;67727;50.236;22.452;2023-04-28T05:35:15;21.70;;;12.50;;
78430;SDS011;67727;50.236;22.452;2023-04-28T05:37:43;27.60;;;14.10;;
78430;SDS011;67727;50.236;22.452;2023-04-28T05:40:10;23.20;;;11.90;;
78430;SDS011;67727;50.236;22.452;2023-04-28T05:42:37;24.50;;;14.80;;
78430;SDS011;67727;50.236;22.452;2023-04-28T05:45:05;24.20;;;12.70;;
78430;SDS011;67727;50.236;22.452;2023-04-28T05:47:32;20.80;;;12.00;;
78430;SDS011;67727;50.236;22.452;2023-04-28T05:49:59;21.30;;;14.00;;
78430;SDS011;67727;50.236;22.452;2023-04-28T05:52:26;19.10;;;12.80;;
78430;SDS011;67727;50.236;22.452;2023-04-28T05:54:53;23.80;;;15.10;;
78430;SDS011;67727;50.236;22.452;2023-04-28T05:57:20;25.30;;;14.80;;
78430;SDS011;67727;50.236;22.452;2023-04-28T05:59:47;22.50;;;13.50;;
78430;SDS011;67727;50.236;22.452;2023-04-28T06:02:16;27.00;;;13.00;;
78430;SDS011;67727;50.236;22.452;2023-04-28T06:04:43;21.90;;;12.00;;
78430;SDS011;67727;50.236;22.452;2023-04-28T06:07:12;18.40;;;13.40;;
78430;SDS011;67727;50.236;22.452;2023-04-28T06:09:39;19.00;;;13.20;;
78430;SDS011;67727;50.236;22.452;2023-04-28T06:12:12;19.00;;;12.20;;
78430;SDS011;67727;50.236;22.452;2023-04-28T06:14:39;22.10;;;13.30;;
78430;SDS011;67727;50.236;22.452;2023-04-28T06:17:07;20.60;;;12.90;;
78430;SDS011;67727;50.236;22.452;2023-04-28T06:19:36;20.70;;;12.10;;
78430;SDS011;67727;50.236;22.452;2023-04-28T06:22:03;22.60;;;12.70;;
78430;SDS011;67727;50.236;22.452;2023-04-28T06:24:30;19.30;;;12.90;;
78430;SDS011;67727;50.236;22.452;2023-04-28T06:27:00;22.00;;;12.80;;
78430;SDS011;67727;50.236;22.452;2023-04-28T06:29:26;22.00;;;13.40;;
78430;SDS011;67727;50.236;22.452;2023-04-28T06:31:53;23.50;;;13.20;;
78430;SDS011;67727;50.236;22.452;2023-04-28T06:34:26;22.30;;;13.10;;
78430;SDS011;67727;50.236;22.452;2023-04-28T06:36:54;20.50;;;11.70;;
78430;SDS011;67727;50.236;22.452;2023-04-28T06:39:21;16.80;;;11.20;;
78430;SDS011;67727;50.236;22.452;2023-04-28T06:41:48;21.20;;;12.00;;
78430;SDS011;67727;50.236;22.452;2023-04-28T06:44:15;17.90;;;10.90;;
78430;SDS011;67727;50.236;22.452;2023-04-28T06:46:42;18.20;;;10.80;;
78430;SDS011;67727;50.236;22.452;2023-04-28T06:49:09;18.50;;;11.30;;
78430;SDS011;67727;50.236;22.452;2023-04-28T06:51:36;18.20;;;12.20;;
78430;SDS011;67727;50.236;22.452;2023-04-28T06:54:03;22.90;;;12.30;;
78430;SDS011;67727;50.236;22.452;2023-04-28T06:56:30;22.90;;;11.80;;
78430;SDS011;67727;50.236;22.452;2023-04-28T06:58:57;21.80;;;12.00;;
78430;SDS011;67727;50.236;22.452;2023-04-28T07:01:24;16.60;;;10.20;;
78430;SDS011;67727;50.236;22.452;2023-04-28T07:03:51;16.10;;;9.40;;
78430;SDS011;67727;50.236;22.452;2023-04-28T07:06:18;16.30;;;9.20;;
78430;SDS011;67727;50.236;22.452;2023-04-28T07:08:45;14.80;;;9.30;;
78430;SDS011;67727;50.236;22.452;2023-04-28T07:11:12;14.50;;;9.90;;
78430;SDS011;67727;50.236;22.452;2023-04-28T07:13:39;13.80;;;9.40;;
78430;SDS011;67727;50.236;22.452;2023-04-28T07:16:06;14.20;;;7.90;;
78430;SDS011;67727;50.236;22.452;2023-04-28T07:21:00;18.50;;;8.40;;
78430;SDS011;67727;50.236;22.452;2023-04-28T07:23:27;12.70;;;6.40;;
78430;SDS011;67727;50.236;22.452;2023-04-28T07:25:55;9.80;;;5.80;;
78430;SDS011;67727;50.236;22.452;2023-04-28T07:28:23;11.20;;;7.00;;
78430;SDS011;67727;50.236;22.452;2023-04-28T07:30:53;10.50;;;6.50;;
78430;SDS011;67727;50.236;22.452;2023-04-28T07:33:20;10.40;;;5.80;;
78430;SDS011;67727;50.236;22.452;2023-04-28T07:35:47;13.50;;;6.70;;
78430;SDS011;67727;50.236;22.452;2023-04-28T07:38:14;10.40;;;6.20;;
78430;SDS011;67727;50.236;22.452;2023-04-28T07:43:09;17.40;;;8.70;;
78430;SDS011;67727;50.236;22.452;2023-04-28T07:45:39;11.30;;;7.90;;
78430;SDS011;67727;50.236;22.452;2023-04-28T07:48:06;15.40;;;8.70;;
78430;SDS011;67727;50.236;22.452;2023-04-28T07:53:00;18.10;;;9.00;;
78430;SDS011;67727;50.236;22.452;2023-04-28T07:55:27;12.40;;;8.40;;
78430;SDS011;67727;50.236;22.452;2023-04-28T07:57:54;11.90;;;7.70;;
78430;SDS011;67727;50.236;22.452;2023-04-28T08:00:24;11.20;;;8.10;;
78430;SDS011;67727;50.236;22.452;2023-04-28T08:02:51;13.30;;;7.40;;
78430;SDS011;67727;50.236;22.452;2023-04-28T08:05:18;11.80;;;7.40;;
78430;SDS011;67727;50.236;22.452;2023-04-28T08:07:48;10.50;;;6.80;;
78430;SDS011;67727;50.236;22.452;2023-04-28T08:10:15;14.00;;;7.40;;
78430;SDS011;67727;50.236;22.452;2023-04-28T08:12:42;10.60;;;6.70;;
78430;SDS011;67727;50.236;22.452;2023-04-28T08:15:11;14.60;;;7.30;;
78430;SDS011;67727;50.236;22.452;2023-04-28T08:17:38;19.20;;;7.60;;
78430;SDS011;67727;50.236;22.452;2023-04-28T08:20:05;10.90;;;7.10;;
78430;SDS011;67727;50.236;22.452;2023-04-28T08:22:33;9.50;;;6.50;;
78430;SDS011;67727;50.236;22.452;2023-04-28T08:25:00;8.80;;;6.30;;
78430;SDS011;67727;50.236;22.452;2023-04-28T08:27:27;10.80;;;7.20;;
78430;SDS011;67727;50.236;22.452;2023-04-28T08:29:54;9.90;;;6.80;;
78430;SDS011;67727;50.236;22.452;2023-04-28T08:32:21;8.50;;;6.50;;
78430;SDS011;67727;50.236;22.452;2023-04-28T08:34:48;9.20;;;6.00;;
78430;SDS011;67727;50.236;22.452;2023-04-28T08:37:15;8.30;;;5.90;;
78430;SDS011;67727;50.236;22.452;2023-04-28T08:39:42;10.00;;;5.90;;
78430;SDS011;67727;50.236;22.452;2023-04-28T08:42:09;9.60;;;6.00;;
78430;SDS011;67727;50.236;22.452;2023-04-28T08:44:37;8.30;;;6.00;;
78430;SDS011;67727;50.236;22.452;2023-04-28T08:47:11;7.90;;;5.30;;
78430;SDS011;67727;50.236;22.452;2023-04-28T08:49:41;10.10;;;5.70;;
78430;SDS011;67727;50.236;22.452;2023-04-28T08:52:11;10.20;;;6.30;;
78430;SDS011;67727;50.236;22.452;2023-04-28T08:54:39;10.10;;;6.30;;
78430;SDS011;67727;50.236;22.452;2023-04-28T08:57:07;10.30;;;5.50;;
78430;SDS011;67727;50.236;22.452;2023-04-28T08:59:38;10.60;;;6.30;;
78430;SDS011;67727;50.236;22.452;2023-04-28T09:02:07;9.10;;;5.30;;
78430;SDS011;67727;50.236;22.452;2023-04-28T09:04:34;8.60;;;4.50;;
78430;SDS011;67727;50.236;22.452;2023-04-28T09:09:29;8.10;;;4.80;;
78430;SDS011;67727;50.236;22.452;2023-04-28T09:12:00;8.90;;;4.80;;
78430;SDS011;67727;50.236;22.452;2023-04-28T09:14:28;6.80;;;4.80;;
78430;SDS011;67727;50.236;22.452;2023-04-28T09:16:58;6.80;;;5.20;;
78430;SDS011;67727;50.236;22.452;2023-04-28T09:19:35;8.80;;;5.70;;
78430;SDS011;67727;50.236;22.452;2023-04-28T09:22:03;8.30;;;5.90;;
78430;SDS011;67727;50.236;22.452;2023-04-28T09:24:33;8.00;;;5.10;;
78430;SDS011;67727;50.236;22.452;2023-04-28T09:27:02;7.10;;;5.30;;
78430;SDS011;67727;50.236;22.452;2023-04-28T09:29:30;10.90;;;6.60;;
78430;SDS011;67727;50.236;22.452;2023-04-28T09:34:56;10.10;;;5.40;;
78430;SDS011;67727;50.236;22.452;2023-04-28T09:37:24;10.00;;;5.90;;
78430;SDS011;67727;50.236;22.452;2023-04-28T09:39:56;6.30;;;4.70;;
78430;SDS011;67727;50.236;22.452;2023-04-28T09:42:37;8.30;;;4.90;;
78430;SDS011;67727;50.236;22.452;2023-04-28T09:45:05;8.20;;;5.40;;
78430;SDS011;67727;50.236;22.452;2023-04-28T09:47:34;10.70;;;5.10;;
78430;SDS011;67727;50.236;22.452;2023-04-28T09:50:03;8.70;;;5.30;;
78430;SDS011;67727;50.236;22.452;2023-04-28T09:52:32;10.60;;;6.60;;
78430;SDS011;67727;50.236;22.452;2023-04-28T09:55:00;7.20;;;4.60;;
78430;SDS011;67727;50.236;22.452;2023-04-28T09:57:30;7.60;;;5.00;;
78430;SDS011;67727;50.236;22.452;2023-04-28T09:59:59;8.20;;;4.20;;
78430;SDS011;67727;50.236;22.452;2023-04-28T10:02:27;8.90;;;4.70;;
78430;SDS011;67727;50.236;22.452;2023-04-28T10:04:54;8.60;;;5.10;;
78430;SDS011;67727;50.236;22.452;2023-04-28T10:07:21;8.40;;;4.80;;
78430;SDS011;67727;50.236;22.452;2023-04-28T10:09:49;9.90;;;5.20;;
78430;SDS011;67727;50.236;22.452;2023-04-28T10:12:16;7.30;;;4.60;;
78430;SDS011;67727;50.236;22.452;2023-04-28T10:14:44;7.70;;;4.90;;
78430;SDS011;67727;50.236;22.452;2023-04-28T10:17:12;6.80;;;4.70;;
78430;SDS011;67727;50.236;22.452;2023-04-28T10:19:43;13.20;;;6.10;;
78430;SDS011;67727;50.236;22.452;2023-04-28T10:27:44;13.40;;;6.80;;
78430;SDS011;67727;50.236;22.452;2023-04-28T10:30:14;13.10;;;7.20;;
78430;SDS011;67727;50.236;22.452;2023-04-28T10:32:43;12.10;;;6.50;;
78430;SDS011;67727;50.236;22.452;2023-04-28T10:38:06;7.60;;;5.70;;
78430;SDS011;67727;50.236;22.452;2023-04-28T10:40:36;9.70;;;5.20;;
78430;SDS011;67727;50.236;22.452;2023-04-28T10:43:10;8.90;;;5.30;;
78430;SDS011;67727;50.236;22.452;2023-04-28T10:48:22;7.40;;;5.50;;
78430;SDS011;67727;50.236;22.452;2023-04-28T10:56:12;7.80;;;4.90;;
78430;SDS011;67727;50.236;22.452;2023-04-28T10:58:44;7.80;;;5.20;;
78430;SDS011;67727;50.236;22.452;2023-04-28T11:06:17;7.80;;;5.30;;
78430;SDS011;67727;50.236;22.452;2023-04-28T11:08:52;6.90;;;5.50;;
78430;SDS011;67727;50.236;22.452;2023-04-28T11:11:24;9.50;;;5.70;;
78430;SDS011;67727;50.236;22.452;2023-04-28T11:13:53;7.30;;;5.40;;
78430;SDS011;67727;50.236;22.452;2023-04-28T11:16:22;9.60;;;5.30;;
78430;SDS011;67727;50.236;22.452;2023-04-28T11:21:21;6.90;;;4.80;;
78430;SDS011;67727;50.236;22.452;2023-04-28T11:23:49;7.80;;;4.80;;
78430;SDS011;67727;50.236;22.452;2023-04-28T11:26:20;7.10;;;4.80;;
78430;SDS011;67727;50.236;22.452;2023-04-28T11:28:53;7.70;;;4.70;;
78430;SDS011;67727;50.236;22.452;2023-04-28T11:31:23;9.80;;;5.00;;
78430;SDS011;67727;50.236;22.452;2023-04-28T11:33:56;6.60;;;4.80;;
78430;SDS011;67727;50.236;22.452;2023-04-28T11:36:34;8.90;;;5.60;;
78430;SDS011;67727;50.236;22.452;2023-04-28T11:39:03;8.70;;;4.50;;
78430;SDS011;67727;50.236;22.452;2023-04-28T11:41:33;7.40;;;4.40;;
78430;SDS011;67727;50.236;22.452;2023-04-28T11:44:15;7.80;;;4.80;;
78430;SDS011;67727;50.236;22.452;2023-04-28T11:46:47;8.50;;;4.30;;
78430;SDS011;67727;50.236;22.452;2023-04-28T11:49:17;7.10;;;4.80;;
78430;SDS011;67727;50.236;22.452;2023-04-28T11:51:44;5.80;;;4.50;;
78430;SDS011;67727;50.236;22.452;2023-04-28T11:54:18;9.10;;;5.10;;
78430;SDS011;67727;50.236;22.452;2023-04-28T11:56:47;6.60;;;4.70;;
78430;SDS011;67727;50.236;22.452;2023-04-28T11:59:14;9.00;;;4.90;;
78430;SDS011;67727;50.236;22.452;2023-04-28T12:04:28;6.40;;;4.70;;
78430;SDS011;67727;50.236;22.452;2023-04-28T12:07:10;5.60;;;4.80;;
78430;SDS011;67727;50.236;22.452;2023-04-28T12:09:42;9.50;;;5.00;;
78430;SDS011;67727;50.236;22.452;2023-04-28T12:12:10;11.60;;;6.10;;
78430;SDS011;67727;50.236;22.452;2023-04-28T12:14:54;9.90;;;5.40;;
78430;SDS011;67727;50.236;22.452;2023-04-28T12:17:31;6.20;;;4.50;;
78430;SDS011;67727;50.236;22.452;2023-04-28T12:19:59;9.10;;;5.20;;
78430;SDS011;67727;50.236;22.452;2023-04-28T12:22:30;9.30;;;5.30;;
78430;SDS011;67727;50.236;22.452;2023-04-28T12:25:06;7.60;;;5.60;;
78430;SDS011;67727;50.236;22.452;2023-04-28T12:27:35;12.00;;;5.20;;
78430;SDS011;67727;50.236;22.452;2023-04-28T12:32:45;7.70;;;4.60;;
78430;SDS011;67727;50.236;22.452;2023-04-28T12:35:13;8.30;;;4.90;;
78430;SDS011;67727;50.236;22.452;2023-04-28T12:37:43;7.70;;;4.80;;
78430;SDS011;67727;50.236;22.452;2023-04-28T12:40:10;7.10;;;4.90;;
78430;SDS011;67727;50.236;22.452;2023-04-28T12:42:37;11.50;;;6.60;;
78430;SDS011;67727;50.236;22.452;2023-04-28T12:45:04;9.10;;;5.00;;
78430;SDS011;67727;50.236;22.452;2023-04-28T12:47:32;6.00;;;4.80;;
78430;SDS011;67727;50.236;22.452;2023-04-28T12:49:59;6.60;;;4.90;;
78430;SDS011;67727;50.236;22.452;2023-04-28T12:52:26;11.50;;;4.90;;
78430;SDS011;67727;50.236;22.452;2023-04-28T12:54:53;5.70;;;4.60;;
78430;SDS011;67727;50.236;22.452;2023-04-28T12:57:20;9.80;;;4.80;;
78430;SDS011;67727;50.236;22.452;2023-04-28T12:59:51;8.20;;;4.80;;
78430;SDS011;67727;50.236;22.452;2023-04-28T13:02:18;6.50;;;4.30;;
78430;SDS011;67727;50.236;22.452;2023-04-28T13:04:45;9.40;;;4.70;;
78430;SDS011;67727;50.236;22.452;2023-04-28T13:07:12;8.50;;;4.50;;
78430;SDS011;67727;50.236;22.452;2023-04-28T13:09:40;11.20;;;4.00;;
78430;SDS011;67727;50.236;22.452;2023-04-28T13:12:10;8.10;;;5.30;;
78430;SDS011;67727;50.236;22.452;2023-04-28T13:17:05;10.00;;;4.20;;
78430;SDS011;67727;50.236;22.452;2023-04-28T13:19:31;13.10;;;4.70;;
78430;SDS011;67727;50.236;22.452;2023-04-28T13:21:59;11.50;;;5.00;;
78430;SDS011;67727;50.236;22.452;2023-04-28T13:24:30;7.10;;;4.70;;
78430;SDS011;67727;50.236;22.452;2023-04-28T13:26:58;7.90;;;4.90;;
78430;SDS011;67727;50.236;22.452;2023-04-28T13:29:25;6.20;;;4.40;;
78430;SDS011;67727;50.236;22.452;2023-04-28T13:31:52;5.40;;;4.40;;
78430;SDS011;67727;50.236;22.452;2023-04-28T13:34:19;10.20;;;5.10;;
78430;SDS011;67727;50.236;22.452;2023-04-28T13:36:46;5.30;;;4.60;;
78430;SDS011;67727;50.236;22.452;2023-04-28T13:39:16;7.70;;;5.00;;
78430;SDS011;67727;50.236;22.452;2023-04-28T13:41:47;11.00;;;5.20;;
78430;SDS011;67727;50.236;22.452;2023-04-28T13:44:15;10.10;;;5.60;;
78430;SDS011;67727;50.236;22.452;2023-04-28T13:46:42;7.20;;;4.50;;
78430;SDS011;67727;50.236;22.452;2023-04-28T13:49:09;8.00;;;4.70;;
78430;SDS011;67727;50.236;22.452;2023-04-28T13:51:36;6.50;;;4.20;;
78430;SDS011;67727;50.236;22.452;2023-04-28T13:54:03;7.30;;;4.60;;
78430;SDS011;67727;50.236;22.452;2023-04-28T13:56:34;7.50;;;4.90;;
78430;SDS011;67727;50.236;22.452;2023-04-28T13:59:02;8.00;;;5.00;;
78430;SDS011;67727;50.236;22.452;2023-04-28T14:03:56;10.20;;;5.00;;
78430;SDS011;67727;50.236;22.452;2023-04-28T14:06:23;11.80;;;5.40;;
78430;SDS011;67727;50.236;22.452;2023-04-28T14:08:50;7.80;;;5.70;;
78430;SDS011;67727;50.236;22.452;2023-04-28T14:13:44;9.80;;;4.80;;
78430;SDS011;67727;50.236;22.452;2023-04-28T14:16:11;10.90;;;5.00;;
78430;SDS011;67727;50.236;22.452;2023-04-28T14:18:38;8.30;;;5.30;;
78430;SDS011;67727;50.236;22.452;2023-04-28T14:21:05;8.70;;;5.90;;
78430;SDS011;67727;50.236;22.452;2023-04-28T14:23:35;8.40;;;5.50;;
78430;SDS011;67727;50.236;22.452;2023-04-28T14:26:02;8.50;;;5.40;;
78430;SDS011;67727;50.236;22.452;2023-04-28T14:28:29;6.80;;;5.00;;
78430;SDS011;67727;50.236;22.452;2023-04-28T14:33:23;8.50;;;5.50;;
78430;SDS011;67727;50.236;22.452;2023-04-28T14:35:50;10.40;;;5.20;;
78430;SDS011;67727;50.236;22.452;2023-04-28T14:38:17;9.70;;;5.20;;
78430;SDS011;67727;50.236;22.452;2023-04-28T14:40:46;7.90;;;4.90;;
78430;SDS011;67727;50.236;22.452;2023-04-28T14:43:13;13.30;;;5.30;;
78430;SDS011;67727;50.236;22.452;2023-04-28T14:45:40;7.70;;;5.00;;
78430;SDS011;67727;50.236;22.452;2023-04-28T14:50:36;10.10;;;5.30;;
78430;SDS011;67727;50.236;22.452;2023-04-28T14:53:03;7.60;;;5.50;;
78430;SDS011;67727;50.236;22.452;2023-04-28T14:55:33;7.20;;;5.10;;
78430;SDS011;67727;50.236;22.452;2023-04-28T14:58:00;9.60;;;5.40;;
78430;SDS011;67727;50.236;22.452;2023-04-28T15:00:28;7.80;;;4.90;;
78430;SDS011;67727;50.236;22.452;2023-04-28T15:02:55;7.50;;;5.00;;
78430;SDS011;67727;50.236;22.452;2023-04-28T15:07:49;10.00;;;5.10;;
78430;SDS011;67727;50.236;22.452;2023-04-28T15:10:16;9.40;;;5.90;;
78430;SDS011;67727;50.236;22.452;2023-04-28T15:12:43;10.00;;;6.00;;
78430;SDS011;67727;50.236;22.452;2023-04-28T15:15:10;9.80;;;5.00;;
78430;SDS011;67727;50.236;22.452;2023-04-28T15:17:38;7.00;;;5.20;;
78430;SDS011;67727;50.236;22.452;2023-04-28T15:20:05;7.50;;;4.90;;
78430;SDS011;67727;50.236;22.452;2023-04-28T15:22:33;8.90;;;4.90;;
78430;SDS011;67727;50.236;22.452;2023-04-28T15:25:01;8.30;;;5.20;;